Time;durP1;ratioP1;P1;durP2;ratioP2;P2;SDS_P1;SDS_P2;PMS_P1;PMS_P2;Temp;Humidity;BMP_temperature;BMP_pressure;BME280_temperature;BME280_humidity;BME280_pressure;Samples;Min_cycle;Max_cycle;Signal;HPM_P1;HPM_P2
2021/07/07 00:00:37;;;;;;;5.75;2.03;;;17.10;87.90;;;17.39;74.89;100208.41;5028862;28;20095;-79
2021/07/07 00:03:04;;;;;;;5.97;1.63;;;17.10;87.80;;;17.37;74.81;100205.03;5028355;28;20324;-79
2021/07/07 00:05:31;;;;;;;8.02;1.85;;;17.10;87.80;;;17.38;74.80;100202.06;5028590;28;20498;-79
2021/07/07 00:07:58;;;;;;;5.43;1.70;;;17.10;87.60;;;17.37;74.76;100202.28;5028064;28;20069;-78
2021/07/07 00:10:28;;;;;;;7.68;1.50;;;17.10;87.70;;;17.35;74.68;100216.28;5028267;28;20132;-78
2021/07/07 00:12:59;;;;;;;4.05;1.60;;;17.10;87.70;;;17.33;74.86;100209.34;5027148;28;20084;-79
2021/07/07 00:15:31;;;;;;;4.45;1.90;;;17.10;87.90;;;17.30;74.97;100207.88;5028733;28;20045;-78
2021/07/07 00:17:58;;;;;;;5.03;1.40;;;17.10;88.00;;;17.28;74.80;100210.03;5028329;28;20386;-79
2021/07/07 00:20:25;;;;;;;5.10;1.58;;;17.00;87.90;;;17.28;74.99;100214.72;5028558;28;20136;-78
2021/07/07 00:22:53;;;;;;;5.60;1.58;;;17.00;88.00;;;17.28;74.71;100206.47;5028692;28;20249;-79
2021/07/07 00:25:20;;;;;;;4.20;1.55;;;17.00;88.00;;;17.26;74.95;100209.44;5028207;28;20510;-78
2021/07/07 00:27:47;;;;;;;5.60;1.60;;;17.00;88.00;;;17.25;74.79;100206.91;5028286;28;20450;-79
2021/07/07 00:30:17;;;;;;;6.63;1.88;;;17.00;88.10;;;17.23;75.19;100201.69;5027206;28;20053;-79
2021/07/07 00:32:44;;;;;;;6.03;1.95;;;16.90;88.20;;;17.21;75.13;100198.34;5028167;28;20045;-79
2021/07/07 00:35:12;;;;;;;7.65;1.80;;;16.90;88.30;;;17.18;75.13;100205.13;5028359;28;20445;-79
2021/07/07 00:37:40;;;;;;;6.05;1.70;;;16.90;88.40;;;17.16;75.18;100201.78;5027763;28;20164;-78
2021/07/07 00:40:08;;;;;;;5.20;1.50;;;16.90;88.50;;;17.14;75.42;100208.59;5028351;28;20119;-78
2021/07/07 00:42:36;;;;;;;5.78;1.73;;;16.80;88.60;;;17.10;75.67;100212.91;5028131;28;20053;-78
2021/07/07 00:45:04;;;;;;;10.77;2.00;;;16.80;88.70;;;17.10;75.51;100207.41;5028081;28;20092;-78
2021/07/07 00:47:32;;;;;;;6.97;1.77;;;16.80;88.80;;;17.09;75.39;100214.78;5028060;28;20041;-78
2021/07/07 00:49:59;;;;;;;5.68;1.80;;;16.80;88.60;;;17.04;75.47;100217.41;5028154;28;20096;-79
2021/07/07 00:52:27;;;;;;;3.97;1.45;;;16.80;88.60;;;17.04;75.49;100217.41;5028342;28;20125;-78
2021/07/07 00:54:54;;;;;;;6.45;1.92;;;16.80;88.50;;;17.03;75.44;100221.22;5026728;28;20498;-78
2021/07/07 00:57:24;;;;;;;6.30;2.00;;;16.80;88.50;;;17.05;75.52;100213.56;5026451;28;20136;-78
2021/07/07 00:59:56;;;;;;;6.20;1.70;;;16.80;88.80;;;17.05;75.57;100213.56;5028396;28;20508;-78
2021/07/07 01:02:25;;;;;;;4.45;1.75;;;16.80;88.80;;;17.02;75.72;100208.56;5026522;28;20053;-79
2021/07/07 01:04:55;;;;;;;7.47;1.73;;;16.80;88.60;;;17.00;75.52;100206.06;5028218;28;20680;-78
2021/07/07 01:07:22;;;;;;;4.95;1.40;;;16.70;88.50;;;16.99;75.37;100203.53;5027714;28;20091;-78
2021/07/07 01:09:49;;;;;;;7.18;1.80;;;16.80;88.40;;;16.97;74.90;100208.44;5027870;28;20128;-78
2021/07/07 01:12:17;;;;;;;8.30;1.60;;;16.70;88.30;;;16.95;74.91;100210.56;5027942;28;20486;-79
2021/07/07 01:14:44;;;;;;;4.75;1.80;;;16.60;88.40;;;16.94;74.84;100206.97;5027706;28;20104;-78
2021/07/07 01:17:12;;;;;;;6.97;2.05;;;16.60;88.30;;;16.92;74.99;100208.28;5027804;28;20037;-79
2021/07/07 01:19:39;;;;;;;6.38;1.70;;;16.60;88.60;;;16.88;75.24;100207.06;5027893;28;20123;-78
2021/07/07 01:22:07;;;;;;;4.63;1.90;;;16.60;88.60;;;16.89;75.38;100209.59;5028128;28;20053;-78
2021/07/07 01:24:35;;;;;;;8.63;1.95;;;16.60;88.80;;;16.86;75.16;100200.97;5032067;28;20080;-78
2021/07/07 01:27:02;;;;;;;4.43;1.70;;;16.60;88.70;;;16.81;75.30;100202.50;5031321;28;20062;-79
2021/07/07 01:29:29;;;;;;;6.90;1.67;;;16.50;88.70;;;16.81;75.51;100199.75;5032035;28;20559;-78
2021/07/07 01:31:57;;;;;;;8.25;1.65;;;16.50;88.70;;;16.81;75.16;100193.38;5031504;28;20045;-78
2021/07/07 01:34:24;;;;;;;5.80;1.58;;;16.50;88.70;;;16.79;75.26;100198.28;5031781;28;20053;-78
2021/07/07 01:36:51;;;;;;;4.35;1.58;;;16.50;88.70;;;16.75;75.34;100197.94;5031350;28;20128;-78
2021/07/07 01:39:20;;;;;;;5.65;1.60;;;16.40;88.90;;;16.76;75.22;100196.00;5031239;28;20098;-78
2021/07/07 01:41:48;;;;;;;4.53;1.73;;;16.40;88.90;;;16.74;75.42;100193.50;5031574;28;20069;-78
2021/07/07 01:44:15;;;;;;;5.97;1.80;;;16.40;88.90;;;16.71;75.30;100201.38;5031109;28;20140;-78
2021/07/07 01:46:42;;;;;;;6.32;1.90;;;16.40;88.80;;;16.70;75.37;100202.44;5031141;28;20046;-79
2021/07/07 01:49:10;;;;;;;5.70;1.90;;;16.40;88.80;;;16.70;75.39;100203.28;5031383;28;20081;-78
2021/07/07 01:51:37;;;;;;;9.43;2.33;;;16.30;88.80;;;16.68;75.22;100197.19;5031245;28;20132;-78
2021/07/07 01:56:41;;;;;;;4.55;1.90;;;16.30;89.00;;;16.65;75.25;100196.81;4970737;28;20062;-78
2021/07/07 01:59:08;;;;;;;7.68;2.20;;;16.30;89.00;;;16.66;75.20;100203.97;4976008;28;20050;-78
2021/07/07 02:01:35;;;;;;;7.25;2.17;;;16.30;88.90;;;16.63;75.46;100199.78;4991944;28;20133;-78
2021/07/07 02:04:03;;;;;;;7.65;1.73;;;16.30;89.20;;;16.63;75.46;100199.78;4990671;28;20536;-78
2021/07/07 02:06:30;;;;;;;7.00;1.80;;;16.30;89.30;;;16.59;75.70;100204.06;4981604;28;20097;-78
2021/07/07 02:08:58;;;;;;;5.82;2.13;;;16.30;89.40;;;16.61;75.62;100204.66;4971793;28;20133;-78
2021/07/07 02:11:25;;;;;;;7.32;2.30;;;16.30;89.40;;;16.60;75.75;100202.97;4972267;28;20525;-78
2021/07/07 02:13:54;;;;;;;9.45;1.98;;;16.30;89.50;;;16.59;75.64;100207.66;4971878;28;20567;-78
2021/07/07 02:16:22;;;;;;;6.68;1.98;;;16.30;89.40;;;16.58;75.66;100205.13;4986429;28;20051;-79
2021/07/07 02:18:49;;;;;;;4.65;2.00;;;16.30;89.50;;;16.57;75.37;100206.22;4972103;28;20047;-78
2021/07/07 02:21:17;;;;;;;7.47;2.13;;;16.20;89.20;;;16.53;75.62;100207.75;4971735;28;20128;-78
2021/07/07 02:23:44;;;;;;;6.18;2.42;;;16.20;89.40;;;16.53;75.57;100210.50;4972223;28;20097;-78
2021/07/07 02:26:11;;;;;;;7.57;1.92;;;16.20;89.50;;;16.53;75.61;100200.34;4971551;28;20117;-78
2021/07/07 02:28:39;;;;;;;6.85;2.40;;;16.20;89.60;;;16.54;75.66;100198.41;4972100;28;20046;-78
2021/07/07 02:31:07;;;;;;;7.22;2.47;;;16.20;89.80;;;16.56;76.01;100199.03;4972208;28;20057;-78
2021/07/07 02:33:35;;;;;;;9.35;2.33;;;16.30;90.00;;;16.55;76.24;100189.13;4971237;28;20047;-78
2021/07/07 02:36:02;;;;;;;6.93;2.67;;;16.30;90.00;;;16.55;76.47;100187.22;4971727;28;20146;-78
2021/07/07 02:38:29;;;;;;;7.85;2.40;;;16.20;89.90;;;16.56;76.35;100179.78;4971719;28;20142;-78
2021/07/07 02:40:57;;;;;;;11.63;3.22;;;16.30;90.00;;;16.58;76.43;100183.16;4971849;28;20061;-78
2021/07/07 02:43:26;;;;;;;8.93;3.35;;;16.40;90.00;;;16.58;76.62;100183.16;4971599;28;20574;-78
2021/07/07 02:45:53;;;;;;;8.10;2.80;;;16.40;90.00;;;16.58;76.71;100191.38;4969828;28;20047;-78
2021/07/07 02:48:21;;;;;;;8.52;2.75;;;16.40;90.00;;;16.59;76.82;100187.59;4971447;28;20043;-78
2021/07/07 02:50:49;;;;;;;10.90;2.80;;;16.40;90.00;;;16.55;77.09;100191.88;4971364;28;20220;-78
2021/07/07 02:53:18;;;;;;;9.88;3.00;;;16.40;90.00;;;16.54;76.96;100196.50;4971529;28;20066;-78
2021/07/07 02:55:46;;;;;;;6.63;2.53;;;16.40;90.00;;;16.54;76.99;100199.25;4971304;28;20090;-78
2021/07/07 02:58:14;;;;;;;4.80;2.35;;;16.50;90.00;;;16.58;76.81;100199.63;4971305;28;20043;-78
2021/07/07 03:00:44;;;;;;;8.90;2.70;;;16.50;89.90;;;16.54;77.06;100196.50;4971588;28;20047;-78
2021/07/07 03:03:14;;;;;;;8.05;2.90;;;16.40;89.70;;;16.57;77.24;100206.22;4969823;28;20467;-78
2021/07/07 03:05:45;;;;;;;8.75;2.78;;;16.40;89.90;;;16.55;76.86;100197.38;4971591;28;20146;-78
2021/07/07 03:08:14;;;;;;;;;;;16.50;90.10;;;16.57;77.19;100206.22;4975806;28;20046;-78
2021/07/07 03:10:43;;;;;;;5.47;2.42;;;16.50;90.10;;;16.57;77.11;100208.97;4971376;28;20009;-78
2021/07/07 03:13:11;;;;;;;7.60;2.70;;;16.50;90.10;;;16.56;77.26;100207.28;4971193;28;20055;-78
2021/07/07 03:15:39;;;;;;;6.63;2.50;;;16.50;90.10;;;16.56;77.28;100216.38;4970720;28;20133;-78
2021/07/07 03:18:08;;;;;;;8.95;2.47;;;16.50;90.10;;;16.56;77.46;100213.63;4970867;28;20135;-79
2021/07/07 03:20:36;;;;;;;7.53;2.58;;;16.50;90.10;;;16.57;77.38;100218.03;4970525;28;20051;-78
2021/07/07 03:23:08;;;;;;;8.90;2.85;;;16.50;90.10;;;16.57;77.48;100223.53;4972865;28;20085;-78
2021/07/07 03:25:35;;;;;;;;;;;16.60;90.00;;;16.57;77.55;100229.03;4990602;28;20054;-78
2021/07/07 03:28:03;;;;;;;9.73;2.55;;;16.60;90.00;;;16.60;77.51;100224.97;4989810;28;19973;-78
2021/07/07 03:30:31;;;;;;;12.40;2.45;;;16.60;89.90;;;16.61;77.68;100223.91;4990385;28;20134;-78
2021/07/07 03:32:59;;;;;;;6.90;2.72;;;16.60;89.90;;;16.60;77.43;100234.06;4990081;28;20046;-78
2021/07/07 03:35:27;;;;;;;9.32;3.75;;;16.70;90.00;;;16.61;77.78;100229.41;4990230;28;20046;-78
2021/07/07 03:37:55;;;;;;;10.77;2.90;;;16.70;89.90;;;16.63;77.71;100227.25;4989855;28;20506;-78
2021/07/07 03:40:25;;;;;;;9.38;3.00;;;16.70;89.90;;;16.63;77.67;100235.50;4990047;28;20042;-78
2021/07/07 03:42:53;;;;;;;6.15;2.33;;;16.70;89.90;;;16.62;77.83;100233.84;4990313;28;20042;-78
2021/07/07 03:45:21;;;;;;;8.75;2.80;;;16.70;89.80;;;16.62;77.67;100242.09;4988934;28;20120;-78
2021/07/07 03:47:49;;;;;;;15.63;3.22;;;16.60;89.80;;;16.62;77.58;100244.84;4989645;28;20070;-78
2021/07/07 03:50:19;;;;;;;10.23;3.13;;;16.70;90.00;;;16.61;77.69;100245.88;4988029;28;20085;-78
2021/07/07 03:52:47;;;;;;;10.48;2.50;;;16.70;89.80;;;16.61;77.85;100240.38;4989735;28;20538;-78
2021/07/07 03:55:18;;;;;;;8.75;2.60;;;16.70;89.80;;;16.62;77.73;100242.09;4989575;28;20097;-78
2021/07/07 03:57:46;;;;;;;9.73;3.17;;;16.70;89.80;;;16.64;77.72;100250.94;4989261;28;20047;-78
2021/07/07 04:00:17;;;;;;;8.90;2.67;;;16.70;89.70;;;16.66;77.75;100258.91;4989799;28;20069;-78
2021/07/07 04:02:44;;;;;;;9.43;2.50;;;16.70;89.70;;;16.64;77.83;100261.91;4989417;28;20042;-78
2021/07/07 04:05:13;;;;;;;9.50;2.50;;;16.80;89.50;;;16.67;77.90;100266.09;4989651;28;20046;-78
2021/07/07 04:07:42;;;;;;;10.93;3.35;;;16.80;89.40;;;16.68;77.92;100268.63;4989526;28;20049;-78
2021/07/07 04:10:12;;;;;;;8.65;2.50;;;16.90;89.20;;;16.71;78.20;100275.56;4989466;28;20499;-78
2021/07/07 04:12:41;;;;;;;11.10;3.03;;;17.00;89.20;;;16.73;78.21;100282.50;4989653;28;20034;-78
2021/07/07 04:15:13;;;;;;;9.68;3.20;;;17.00;89.20;;;16.73;78.45;100282.50;4989154;28;20060;-78
2021/07/07 04:17:41;;;;;;;10.23;2.85;;;17.10;89.10;;;16.75;77.93;100283.13;4986208;28;20042;-78
2021/07/07 04:20:12;;;;;;;9.20;2.72;;;17.10;88.60;;;16.77;78.33;100286.47;4989296;28;20062;-78
2021/07/07 04:22:40;;;;;;;7.17;2.73;;;17.10;88.70;;;16.79;78.54;100292.59;4989569;28;20034;-78
2021/07/07 04:25:10;;;;;;;10.57;2.75;;;17.30;88.50;;;16.82;77.98;100291.31;4989241;28;20836;-78
2021/07/07 04:27:38;;;;;;;9.98;2.70;;;17.30;88.30;;;16.84;78.57;100288.34;4987327;28;20636;-78
2021/07/07 04:30:08;;;;;;;9.07;2.70;;;17.40;88.00;;;16.86;78.62;100280.69;4989561;28;20050;-78
2021/07/07 04:32:37;;;;;;;8.38;2.67;;;17.50;87.80;;;16.89;78.51;100285.72;4988978;28;20050;-78
2021/07/07 04:35:06;;;;;;;8.85;2.45;;;17.60;87.50;;;16.94;78.79;100283.09;4987820;28;20517;-79
2021/07/07 04:37:33;;;;;;;9.60;3.05;;;17.70;87.30;;;16.97;78.67;100288.97;4987784;28;20053;-79
2021/07/07 04:40:00;;;;;;;10.57;2.50;;;17.70;86.90;;;17.02;78.74;100288.31;4987661;28;20042;-83
2021/07/07 04:42:28;;;;;;;11.25;2.60;;;17.90;86.70;;;17.04;78.74;100286.16;4989183;28;20077;-83
2021/07/07 04:44:55;;;;;;;7.82;2.40;;;18.00;86.30;;;17.09;78.45;100285.44;4988803;28;20046;-82
2021/07/07 04:47:22;;;;;;;14.27;3.00;;;18.20;85.50;;;17.12;78.71;100291.31;4988920;28;20050;-83
2021/07/07 04:49:51;;;;;;;10.27;3.33;;;18.30;85.30;;;17.18;78.84;100295.03;4988805;28;20070;-83
2021/07/07 04:52:18;;;;;;;7.95;2.53;;;18.50;85.00;;;17.24;78.82;100298.78;4989094;28;20144;-83
2021/07/07 04:54:45;;;;;;;10.52;2.70;;;18.60;84.20;;;17.30;78.34;100287.66;4988739;28;20062;-83
2021/07/07 04:57:13;;;;;;;10.38;2.60;;;18.80;83.00;;;17.34;78.37;100288.88;4990563;28;20068;-83
2021/07/07 04:59:40;;;;;;;8.60;2.88;;;18.90;82.90;;;17.41;78.54;100294.28;4992969;28;20038;-83
2021/07/07 05:02:07;;;;;;;7.70;2.10;;;19.10;82.60;;;17.47;78.73;100293.31;4992377;28;20046;-83
2021/07/07 05:04:34;;;;;;;9.32;2.58;;;19.20;82.40;;;17.53;78.54;100300.63;4993021;28;20123;-83
2021/07/07 05:07:03;;;;;;;14.82;2.67;;;19.30;81.80;;;17.60;78.18;100303.28;4992337;28;20050;-83
2021/07/07 05:09:31;;;;;;;10.63;2.60;;;19.50;81.20;;;17.68;78.66;100304.84;4992786;28;20093;-83
2021/07/07 05:11:58;;;;;;;11.27;2.58;;;19.60;81.10;;;17.75;78.67;100305.59;4992831;28;20138;-83
2021/07/07 05:14:26;;;;;;;8.18;2.40;;;19.70;81.10;;;17.80;78.73;100305.72;4992360;28;20555;-83
2021/07/07 05:16:53;;;;;;;9.60;2.33;;;19.80;80.60;;;17.86;78.25;100304.81;5007969;28;20107;-83
2021/07/07 05:19:20;;;;;;;10.35;2.50;;;19.90;80.10;;;17.91;78.60;100296.66;5011983;28;20069;-79
2021/07/07 05:21:47;;;;;;;8.13;2.15;;;20.00;80.30;;;17.98;78.95;100300.13;5012242;28;20069;-79
2021/07/07 05:24:16;;;;;;;10.30;2.42;;;20.10;80.50;;;18.05;79.26;100304.66;5010606;28;20092;-79
2021/07/07 05:26:43;;;;;;;7.80;2.10;;;20.20;80.40;;;18.11;78.50;100299.06;5011601;28;20119;-79
2021/07/07 05:29:11;;;;;;;8.55;2.75;;;20.40;79.00;;;18.16;78.36;100301.06;5011991;28;20065;-80
2021/07/07 05:31:39;;;;;;;10.70;2.33;;;20.50;78.70;;;18.22;77.96;100310.31;5011728;28;20053;-80
2021/07/07 05:34:06;;;;;;;8.70;2.00;;;20.60;78.40;;;18.23;77.39;100301.81;5010346;28;20273;-79
2021/07/07 05:36:33;;;;;;;13.13;2.80;;;20.60;77.80;;;18.27;77.37;100303.00;5010160;28;20461;-79
2021/07/07 05:39:19;;;;;;;9.38;2.40;;;20.50;78.20;;;18.29;77.49;100311.84;5011469;28;20192;-80
2021/07/07 05:41:46;;;;;;;10.88;2.60;;;20.40;78.70;;;18.34;77.55;100309.22;5003423;28;20418;-78
2021/07/07 05:44:13;;;;;;;10.88;3.13;;;20.50;78.80;;;18.38;77.54;100306.81;4982225;28;20529;-77
2021/07/07 05:46:41;;;;;;;12.05;2.50;;;20.60;78.40;;;18.46;77.59;100311.13;4986287;28;20069;-78
2021/07/07 05:49:08;;;;;;;11.55;2.47;;;20.80;78.50;;;18.54;77.52;100303.34;4997741;28;20096;-78
2021/07/07 05:51:35;;;;;;;13.20;2.50;;;21.00;77.30;;;18.65;77.22;100304.38;4992066;28;20662;-79
2021/07/07 05:54:02;;;;;;;13.15;2.40;;;21.20;76.90;;;18.80;76.29;100312.16;4992085;28;20138;-78
2021/07/07 05:56:31;;;;;;;10.75;2.42;;;21.80;76.10;;;18.97;76.04;100308.66;4991388;28;20046;-79
2021/07/07 05:58:58;;;;;;;8.77;2.17;;;22.50;73.40;;;19.13;75.81;100305.94;4992217;28;20046;-79
2021/07/07 06:01:27;;;;;;;8.20;2.28;;;23.10;70.40;;;19.36;74.48;100315.16;4991475;28;20302;-80
2021/07/07 06:03:54;;;;;;;10.38;2.60;;;23.80;67.20;;;19.56;73.36;100309.19;4990244;28;20065;-80
2021/07/07 06:06:21;;;;;;;10.52;3.05;;;24.60;63.10;;;19.79;72.61;100318.44;4991029;28;20487;-80
2021/07/07 06:08:48;;;;;;;8.02;2.03;;;25.40;60.30;;;20.03;71.85;100319.94;4990154;28;20042;-83
2021/07/07 06:11:15;;;;;;;10.40;2.30;;;26.20;58.00;;;20.26;71.20;100318.91;4989273;28;20427;-84
2021/07/07 06:13:44;;;;;;;7.45;2.20;;;27.10;55.80;;;20.52;70.65;100322.03;4998703;28;20558;-84
2021/07/07 06:16:11;;;;;;;6.40;2.05;;;28.20;52.40;;;20.79;69.87;100315.78;4992300;28;20065;-84
2021/07/07 06:18:39;;;;;;;8.95;2.22;;;29.30;49.00;;;21.00;68.37;100316.84;4981392;28;20526;-79
2021/07/07 06:21:16;;;;;;;10.35;2.30;;;29.70;46.10;;;21.13;67.89;100329.47;4996117;28;20057;-81
2021/07/07 06:23:46;;;;;;;10.55;2.50;;;28.80;48.30;;;21.18;67.25;100327.59;4989929;28;20039;-77
2021/07/07 06:26:13;;;;;;;9.43;2.40;;;27.80;50.70;;;21.20;68.29;100330.09;4987056;28;20473;-78
2021/07/07 06:28:40;;;;;;;8.00;2.00;;;26.90;54.60;;;21.21;67.18;100345.59;4987371;28;20128;-78
2021/07/07 06:31:09;;;;;;;7.90;1.88;;;26.60;55.40;;;21.21;67.58;100340.06;4990840;28;20085;-78
2021/07/07 06:33:36;;;;;;;8.07;2.70;;;27.20;54.60;;;21.21;67.08;100337.28;4991233;28;20046;-78
2021/07/07 06:36:04;;;;;;;11.35;2.38;;;27.50;52.50;;;21.20;66.43;100341.16;4990928;28;20066;-78
2021/07/07 06:38:31;;;;;;;11.38;2.47;;;26.70;53.70;;;21.17;67.89;100345.31;4990751;28;20579;-77
2021/07/07 06:40:58;;;;;;;12.30;2.30;;;26.20;56.60;;;21.10;67.76;100344.66;4990662;28;20042;-77
2021/07/07 06:43:25;;;;;;;7.13;2.22;;;25.60;58.00;;;21.03;67.01;100350.38;4990301;28;20074;-77
2021/07/07 06:45:52;;;;;;;10.55;2.30;;;25.10;58.90;;;20.95;67.95;100353.59;4989448;28;20061;-77
2021/07/07 06:48:21;;;;;;;11.18;2.33;;;24.60;61.70;;;20.91;68.28;100358.00;4990181;28;20061;-77
2021/07/07 06:50:49;;;;;;;10.73;2.25;;;24.30;62.80;;;20.85;68.09;100356.25;4989348;28;20506;-77
2021/07/07 06:53:16;;;;;;;14.52;2.92;;;24.20;63.40;;;20.79;68.38;100355.34;4990798;28;20104;-77
2021/07/07 06:55:44;;;;;;;14.20;2.75;;;24.10;64.30;;;20.75;67.34;100361.63;4990296;28;20759;-78
2021/07/07 06:58:12;;;;;;;10.27;2.83;;;24.10;63.50;;;20.73;67.72;100367.41;4989139;28;20124;-78
2021/07/07 07:00:40;;;;;;;10.13;2.47;;;23.90;63.50;;;20.69;68.37;100364.34;4990445;28;20450;-75
2021/07/07 07:03:07;;;;;;;11.02;2.22;;;23.70;64.30;;;20.66;68.97;100367.63;4974939;28;20123;-77
2021/07/07 07:05:36;;;;;;;11.02;2.20;;;23.50;66.20;;;20.57;68.21;100369.13;4990555;28;20060;-77
2021/07/07 07:08:04;;;;;;;15.38;2.65;;;23.20;66.10;;;20.50;68.81;100373.97;4989876;28;20046;-77
2021/07/07 07:10:32;;;;;;;8.75;2.30;;;23.00;67.40;;;20.45;68.56;100376.69;4990193;28;20506;-77
2021/07/07 07:12:59;;;;;;;10.77;2.65;;;22.80;67.50;;;20.42;69.20;100377.19;4989003;28;20121;-78
2021/07/07 07:15:26;;;;;;;9.30;2.65;;;22.60;68.80;;;20.40;69.90;100374.66;4989818;28;20136;-77
2021/07/07 07:17:53;;;;;;;8.95;2.50;;;22.60;70.10;;;20.39;70.01;100384.06;4990189;28;20132;-77
2021/07/07 07:20:25;;;;;;;17.92;2.58;;;22.90;69.00;;;20.41;70.33;100384.66;4990008;28;20105;-77
2021/07/07 07:22:54;;;;;;;18.17;3.25;;;23.10;68.70;;;20.45;70.14;100388.56;4982749;28;20249;-79
2021/07/07 07:25:21;;;;;;;17.15;4.00;;;23.40;67.50;;;20.52;71.43;100388.38;4984132;28;20456;-77
2021/07/07 07:27:48;;;;;;;8.10;2.00;;;23.50;67.90;;;20.55;70.67;100393.41;4988356;28;20474;-77
2021/07/07 07:30:18;;;;;;;54.25;11.23;;;23.60;67.30;;;20.61;70.93;100395.19;4990296;28;20042;-78
2021/07/07 07:32:46;;;;;;;20.58;5.10;;;23.70;67.10;;;20.66;71.21;100388.91;4988481;28;20050;-77
2021/07/07 07:35:16;;;;;;;11.48;2.70;;;23.70;67.50;;;20.69;71.01;100389.25;4988954;28;20128;-76
2021/07/07 07:37:49;;;;;;;8.88;2.60;;;23.70;67.90;;;20.69;70.60;100389.25;4979045;28;20054;-77
2021/07/07 07:40:24;;;;;;;13.55;2.67;;;23.60;67.10;;;20.72;71.03;100393.41;4979251;28;20043;-77
2021/07/07 07:42:52;;;;;;;10.52;2.35;;;23.60;67.60;;;20.69;69.73;100394.78;4985432;28;20134;-77
2021/07/07 07:45:20;;;;;;;14.77;2.80;;;23.50;67.30;;;20.70;70.32;100401.13;4975111;28;20038;-78
2021/07/07 07:47:47;;;;;;;16.65;5.82;;;23.40;67.70;;;20.72;71.55;100401.72;4969075;28;20137;-77
2021/07/07 07:50:16;;;;;;;13.82;3.35;;;23.40;68.50;;;20.75;72.02;100398.41;4975942;28;20518;-79
2021/07/07 07:52:45;;;;;;;13.32;3.60;;;23.40;69.10;;;20.74;70.76;100405.06;4989675;28;20046;-76
2021/07/07 07:55:13;;;;;;;14.57;4.05;;;23.30;68.30;;;20.76;70.74;100400.09;5004066;23;20125;-81
2021/07/07 07:57:42;;;;;;;9.30;2.60;;;23.30;68.90;;;20.76;70.43;100404.81;5027877;28;20287;-80
2021/07/07 08:00:13;;;;;;;18.45;3.42;;;23.30;68.70;;;20.79;70.44;100416.19;5027664;28;20850;-81
2021/07/07 08:02:45;;;;;;;10.52;2.72;;;23.20;68.80;;;20.77;70.59;100407.31;5024395;28;20136;-81
2021/07/07 08:05:13;;;;;;;9.70;2.67;;;23.20;69.20;;;20.77;70.65;100406.47;5021964;28;20781;-81
2021/07/07 08:07:42;;;;;;;15.43;2.33;;;23.20;69.00;;;20.77;70.28;100407.31;5008747;28;20477;-82
2021/07/07 08:10:13;;;;;;;9.98;2.58;;;23.20;68.90;;;20.79;70.19;100409.81;4985979;28;20042;-80
2021/07/07 08:12:42;;;;;;;;;;;23.20;69.10;;;20.82;69.22;100410.13;4989813;28;20053;-79
2021/07/07 08:15:10;;;;;;;10.70;2.45;;;23.20;69.00;;;20.83;70.48;100408.22;4996957;28;19925;-79
2021/07/07 08:17:37;;;;;;;11.18;2.88;;;23.20;69.40;;;20.84;72.04;100407.13;5008536;28;20045;-82
2021/07/07 08:20:07;;;;;;;12.00;2.60;;;23.20;70.20;;;20.87;72.32;100407.47;4983850;28;20508;-82
2021/07/07 08:22:35;;;;;;;7.28;2.53;;;23.20;70.80;;;20.85;69.69;100406.88;4980962;28;20570;-81
2021/07/07 08:25:03;;;;;;;8.82;2.30;;;23.20;68.80;;;20.87;71.85;100412.16;5003569;28;20097;-81
2021/07/07 08:27:31;;;;;;;9.73;2.35;;;23.20;70.10;;;20.91;71.70;100416.09;4988631;28;20549;-82
2021/07/07 08:29:59;;;;;;;10.45;2.30;;;23.20;70.50;;;20.89;69.89;100421.03;4986262;28;20081;-82
2021/07/07 08:32:27;;;;;;;9.35;2.70;;;23.20;69.10;;;20.92;70.00;100417.75;5003153;28;20050;-82
2021/07/07 08:34:54;;;;;;;8.30;2.90;;;23.20;69.40;;;20.92;70.00;100425.22;4988812;28;20053;-83
2021/07/07 08:37:21;;;;;;;9.07;2.60;;;23.20;69.40;;;20.91;68.55;100423.56;5002369;28;20435;-83
2021/07/07 08:39:49;;;;;;;11.85;2.75;;;23.10;68.20;;;20.95;70.77;100431.06;4988650;28;20042;-82
2021/07/07 08:42:16;;;;;;;10.43;2.53;;;23.10;70.20;;;20.97;68.90;100428.88;4988088;28;20064;-82
2021/07/07 08:44:47;;;;;;;10.85;2.75;;;23.10;69.00;;;20.98;69.75;100424.19;4988099;28;20042;-83
2021/07/07 08:47:17;;;;;;;12.07;2.42;;;23.10;69.20;;;21.03;72.17;100424.25;4988064;28;20040;-82
2021/07/07 08:49:44;;;;;;;10.75;2.60;;;23.20;71.50;;;21.06;71.46;100421.81;4988181;28;20130;-83
2021/07/07 08:52:11;;;;;;;7.35;2.10;;;23.20;71.50;;;21.13;70.88;100426.31;4988870;28;20077;-82
2021/07/07 08:54:39;;;;;;;8.30;2.47;;;23.20;70.30;;;21.13;70.63;100426.31;4988503;28;20059;-82
2021/07/07 08:57:08;;;;;;;9.60;2.47;;;23.30;70.40;;;21.14;69.63;100423.31;4988334;28;20046;-82
2021/07/07 08:59:54;;;;;;;8.27;2.42;;;23.30;69.40;;;21.14;67.73;100419.69;4985913;28;20047;-82
2021/07/07 09:02:26;;;;;;;9.70;2.97;;;23.30;68.10;;;21.17;69.56;100422.81;4987509;28;20062;-82
2021/07/07 09:04:53;;;;;;;7.97;2.13;;;23.30;69.10;;;21.19;71.10;100428.91;4987371;28;20146;-83
2021/07/07 09:07:23;;;;;;;9.13;2.30;;;23.30;70.10;;;21.24;70.34;100428.13;4988443;28;20053;-89
2021/07/07 09:09:52;;;;;;;5.70;2.13;;;23.40;70.50;;;21.25;69.01;100422.34;4989157;28;20043;-83
2021/07/07 09:12:23;;;;;;;9.15;2.35;;;23.40;69.00;;;21.28;69.38;100426.50;4987750;28;20080;-83
2021/07/07 09:14:52;;;;;;;6.93;2.45;;;23.40;68.90;;;21.31;68.70;100431.53;4987589;28;20085;-83
2021/07/07 09:17:24;;;;;;;9.00;2.20;;;23.40;68.90;;;21.31;67.46;100427.94;4990429;28;20061;-83
2021/07/07 09:19:58;;;;;;;7.28;2.05;;;23.40;67.80;;;21.34;65.97;100431.00;4974950;28;20481;-83
2021/07/07 09:22:28;;;;;;;10.65;2.28;;;23.40;67.50;;;21.31;66.40;100426.00;4980800;28;20149;-83
2021/07/07 09:25:03;;;;;;;7.57;2.20;;;23.40;67.60;;;21.34;69.17;100428.25;4988469;28;20050;-83
2021/07/07 09:27:36;;;;;;;13.55;1.92;;;23.40;69.20;;;21.37;69.03;100435.22;4988020;28;20124;-83
2021/07/07 09:30:08;;;;;;;10.40;2.20;;;23.40;68.80;;;21.37;67.34;100432.44;4988720;28;20514;-83
2021/07/07 09:32:44;;;;;;;6.63;2.42;;;23.50;67.80;;;21.41;71.12;100430.81;4988432;28;20105;-83
2021/07/07 09:35:12;;;;;;;10.15;2.35;;;23.50;70.90;;;21.45;69.57;100429.25;4988693;28;20046;-83
2021/07/07 09:37:43;;;;;;;9.75;2.25;;;23.50;70.20;;;21.46;68.95;100426.22;4988247;28;20046;-83
2021/07/07 09:40:13;;;;;;;9.48;2.70;;;23.50;69.20;;;21.48;67.65;100424.03;4988228;28;20132;-83
2021/07/07 09:42:44;;;;;;;8.65;2.45;;;23.60;68.10;;;21.48;67.01;100429.56;4987693;28;20070;-83
2021/07/07 09:45:17;;;;;;;8.02;2.08;;;23.60;67.20;;;21.44;64.48;100433.13;4979333;28;20107;-83
2021/07/07 09:47:47;;;;;;;7.22;2.28;;;23.50;65.60;;;21.35;64.60;100435.47;5003654;28;20511;-83
2021/07/07 09:50:16;;;;;;;5.50;2.00;;;23.50;65.60;;;21.31;66.10;100439.84;5001267;28;20034;-83
2021/07/07 09:52:44;;;;;;;6.28;2.17;;;23.50;66.50;;;21.26;65.27;100443.38;4991828;28;20753;-83
2021/07/07 09:55:12;;;;;;;6.03;2.55;;;23.50;66.70;;;21.25;66.09;100446.41;4985921;28;20094;-78
2021/07/07 09:57:48;;;;;;;7.82;2.20;;;23.50;66.70;;;21.25;64.90;100447.25;4998204;28;20538;-78
2021/07/07 10:00:20;;;;;;;7.40;2.60;;;23.50;65.30;;;21.31;65.58;100445.38;4991764;28;20042;-78
2021/07/07 10:02:52;;;;;;;6.78;2.13;;;23.60;65.60;;;21.30;64.33;100454.75;4972346;28;20503;-78
2021/07/07 10:05:22;;;;;;;7.68;2.45;;;23.60;64.40;;;21.25;66.05;100465.78;4972074;28;20121;-78
2021/07/07 10:07:50;;;;;;;7.00;2.03;;;23.60;65.50;;;21.22;64.99;100463.53;4972040;28;20039;-77
2021/07/07 10:10:20;;;;;;;8.48;2.45;;;23.60;65.20;;;21.16;64.34;100459.84;4990598;28;20050;-78
2021/07/07 10:12:49;;;;;;;6.22;2.00;;;23.50;64.90;;;21.13;65.06;100468.66;4982582;28;20050;-78
2021/07/07 10:15:18;;;;;;;9.07;2.28;;;23.30;65.40;;;21.09;66.32;100473.91;5006311;28;20677;-78
2021/07/07 10:17:45;;;;;;;14.15;2.67;;;23.20;67.50;;;21.07;68.78;100484.34;4978417;28;20153;-79